Terminal Aerodrome Forecast
Issued by NWS New Orleans/Baton Rouge, LA

Home | Current Version | Previous Version | Text Only | Print | Product List | Glossary On
Versions: 1 2 3 4 5 6 7 8 9 10 11 12 13 14 15 16 17 18 19 20
000
FTUS44 KLIX 201129
TAFBTR
TAF
KBTR 201129Z 2012/2112 18005KT 1SM BR VV003
      TEMPO 2012/2013 1/4SM FG VV002
     FM201400 20006KT P6SM BKN025
     FM201800 21009KT P6SM SCT035 BKN120
     FM210100 20007KT P6SM SCT030 BKN050
     FM210300 20010KT 4SM TSRA BR BKN025CB
     FM210900 23008KT 6SM -RA BR SCT005 OVC020=

USA.gov is the U.S. government's official web portal to all federal, state and local government web resources and services.